Pagrindinis puslapis
METAR-TAF:

METAR-TAF

Oro uostai :

Kukuta, Kolumbija

platuma: 07-56N, ilguma: 072-31W, Aukštis: 250 m

Dabartinis oras

Ataskaita buvo paskelbta 6 valandos ir 32 minutes, ne 23:00 UTC
Vėjas 4 kt iš Šiaurės/Šiaurės Vakarų
Temperatūra 28°C
Drėgmė 66%
Slėgis 1011 hPa
Matomumas: 3000 m
Išsisklaidę debesys ne aukštis 1500 ft
Išsisklaidę debesys ne aukštis 9000 ft
dūmai

METAR: SKCC 312300Z 33004KT 3000 FU SCT015 SCT090 28/21 A2984

Laikas: 00:32 (05:32 UTC)

Prognozė

Ataskaita buvo paskelbta 7 valandos ir 2 minutes, ne 22:30 UTC
Prognozė galioja nuo 01 metu 00 UTC su 01 metu 24 UTC
Vėjas 8 kt iš Šiaurės
Matomumas: 5000 m
Išsisklaidę debesys ne aukštis 1500 ft
Išsisklaidę debesys ne aukštis 9000 ft
migla
Laikinai
nuo 01 metu 04 UTC su 01 metu 11 UTC
Vėjas 2 kt nuo kintamojo kryptimis

TAF: SKCC 312230Z 0100/0124 36008KT 5000 HZ SCT015 SCT090 TEMPO 0104/0111 VRB02KT TX31/0119Z TN23/0111Z

Orai ataskaitas ir orų prognozės (METAR, TAF).

turimą stotys yra geltonos ir raudonos taškus žemėlapyje.

Perkelti pele per norėdami pamatyti stoties vardą.

Tada spustelėkite, norėdami matyti oro stebėjimo ir prognozės.

Norėdami pakeisti žemėlapį: spustelėkite ant žalios mygtukų su juodo kryžiaus žemyn,; žalią mygtuką su brūkšneliu, jei norite nutolinti; arba žalių rodyklių gretimoms žemėlapius.


METAR-TAF: